sensor_id;sensor_type;location;lat;lon;timestamp;P1;durP1;ratioP1;P2;durP2;ratioP2
74152;SDS011;62505;46.070;14.492;2023-10-19T00:00:30;7.55;;;6.15;;
74152;SDS011;62505;46.070;14.492;2023-10-19T00:02:59;7.90;;;6.63;;
74152;SDS011;62505;46.070;14.492;2023-10-19T00:05:29;7.38;;;6.35;;
74152;SDS011;62505;46.070;14.492;2023-10-19T00:07:57;8.32;;;6.13;;
74152;SDS011;62505;46.070;14.492;2023-10-19T00:10:25;7.18;;;6.30;;
74152;SDS011;62505;46.070;14.492;2023-10-19T00:12:55;7.55;;;6.20;;
74152;SDS011;62505;46.070;14.492;2023-10-19T00:15:25;7.85;;;6.05;;
74152;SDS011;62505;46.070;14.492;2023-10-19T00:17:55;7.55;;;6.25;;
74152;SDS011;62505;46.070;14.492;2023-10-19T00:20:24;6.78;;;5.57;;
74152;SDS011;62505;46.070;14.492;2023-10-19T00:22:56;7.43;;;6.22;;
74152;SDS011;62505;46.070;14.492;2023-10-19T00:25:23;7.32;;;6.25;;
74152;SDS011;62505;46.070;14.492;2023-10-19T00:27:51;8.05;;;5.90;;
74152;SDS011;62505;46.070;14.492;2023-10-19T00:30:17;7.85;;;6.80;;
74152;SDS011;62505;46.070;14.492;2023-10-19T00:32:48;8.00;;;6.82;;
74152;SDS011;62505;46.070;14.492;2023-10-19T00:35:18;8.05;;;6.20;;
74152;SDS011;62505;46.070;14.492;2023-10-19T00:37:57;8.15;;;5.82;;
74152;SDS011;62505;46.070;14.492;2023-10-19T00:40:43;7.40;;;5.65;;
74152;SDS011;62505;46.070;14.492;2023-10-19T00:43:25;7.15;;;6.45;;
74152;SDS011;62505;46.070;14.492;2023-10-19T00:45:57;6.32;;;5.72;;
74152;SDS011;62505;46.070;14.492;2023-10-19T00:48:26;8.93;;;6.25;;
74152;SDS011;62505;46.070;14.492;2023-10-19T00:50:54;7.88;;;6.32;;
74152;SDS011;62505;46.070;14.492;2023-10-19T00:53:33;8.82;;;6.45;;
74152;SDS011;62505;46.070;14.492;2023-10-19T00:56:01;6.70;;;5.97;;
74152;SDS011;62505;46.070;14.492;2023-10-19T00:58:31;10.75;;;7.18;;
74152;SDS011;62505;46.070;14.492;2023-10-19T01:01:01;7.45;;;6.50;;
74152;SDS011;62505;46.070;14.492;2023-10-19T01:03:32;9.32;;;6.28;;
74152;SDS011;62505;46.070;14.492;2023-10-19T01:06:03;7.75;;;6.45;;
74152;SDS011;62505;46.070;14.492;2023-10-19T01:08:38;7.20;;;5.82;;
74152;SDS011;62505;46.070;14.492;2023-10-19T01:11:08;7.82;;;5.70;;
74152;SDS011;62505;46.070;14.492;2023-10-19T01:13:37;7.20;;;6.13;;
74152;SDS011;62505;46.070;14.492;2023-10-19T01:16:11;7.82;;;6.47;;
74152;SDS011;62505;46.070;14.492;2023-10-19T01:18:45;7.93;;;6.22;;
74152;SDS011;62505;46.070;14.492;2023-10-19T01:21:13;8.40;;;7.18;;
74152;SDS011;62505;46.070;14.492;2023-10-19T01:23:46;9.32;;;6.20;;
74152;SDS011;62505;46.070;14.492;2023-10-19T01:26:14;7.20;;;6.30;;
74152;SDS011;62505;46.070;14.492;2023-10-19T01:28:47;6.65;;;5.75;;
74152;SDS011;62505;46.070;14.492;2023-10-19T01:31:17;7.47;;;6.47;;
74152;SDS011;62505;46.070;14.492;2023-10-19T01:33:56;7.72;;;6.53;;
74152;SDS011;62505;46.070;14.492;2023-10-19T01:36:24;7.60;;;6.38;;
74152;SDS011;62505;46.070;14.492;2023-10-19T01:38:53;8.05;;;5.90;;
74152;SDS011;62505;46.070;14.492;2023-10-19T01:41:20;6.75;;;6.05;;
74152;SDS011;62505;46.070;14.492;2023-10-19T01:43:49;6.43;;;5.72;;
74152;SDS011;62505;46.070;14.492;2023-10-19T01:46:18;8.18;;;6.60;;
74152;SDS011;62505;46.070;14.492;2023-10-19T01:48:50;7.50;;;6.28;;
74152;SDS011;62505;46.070;14.492;2023-10-19T01:51:20;7.90;;;6.20;;
74152;SDS011;62505;46.070;14.492;2023-10-19T01:53:49;6.88;;;5.97;;
74152;SDS011;62505;46.070;14.492;2023-10-19T01:56:16;6.25;;;5.60;;
74152;SDS011;62505;46.070;14.492;2023-10-19T01:58:44;7.03;;;6.10;;
74152;SDS011;62505;46.070;14.492;2023-10-19T02:01:12;6.85;;;6.13;;
74152;SDS011;62505;46.070;14.492;2023-10-19T02:03:53;6.68;;;5.63;;
74152;SDS011;62505;46.070;14.492;2023-10-19T02:06:20;7.10;;;5.85;;
74152;SDS011;62505;46.070;14.492;2023-10-19T02:08:51;6.70;;;6.00;;
74152;SDS011;62505;46.070;14.492;2023-10-19T02:11:23;7.43;;;5.80;;
74152;SDS011;62505;46.070;14.492;2023-10-19T02:13:51;6.90;;;5.65;;
74152;SDS011;62505;46.070;14.492;2023-10-19T02:16:19;7.75;;;6.50;;
74152;SDS011;62505;46.070;14.492;2023-10-19T02:18:48;7.18;;;6.22;;
74152;SDS011;62505;46.070;14.492;2023-10-19T02:21:14;6.63;;;5.93;;
74152;SDS011;62505;46.070;14.492;2023-10-19T02:23:47;7.07;;;5.68;;
74152;SDS011;62505;46.070;14.492;2023-10-19T02:26:15;6.93;;;6.22;;
74152;SDS011;62505;46.070;14.492;2023-10-19T02:28:46;7.60;;;6.38;;
74152;SDS011;62505;46.070;14.492;2023-10-19T02:31:15;7.85;;;5.93;;
74152;SDS011;62505;46.070;14.492;2023-10-19T02:33:44;6.80;;;6.10;;
74152;SDS011;62505;46.070;14.492;2023-10-19T02:36:17;7.57;;;6.07;;
74152;SDS011;62505;46.070;14.492;2023-10-19T02:38:44;8.35;;;6.40;;
74152;SDS011;62505;46.070;14.492;2023-10-19T02:41:15;6.53;;;5.65;;
74152;SDS011;62505;46.070;14.492;2023-10-19T02:43:47;9.20;;;7.28;;
74152;SDS011;62505;46.070;14.492;2023-10-19T02:46:26;6.82;;;6.10;;
74152;SDS011;62505;46.070;14.492;2023-10-19T02:48:52;7.10;;;6.18;;
74152;SDS011;62505;46.070;14.492;2023-10-19T02:51:19;6.97;;;5.95;;
74152;SDS011;62505;46.070;14.492;2023-10-19T02:53:45;7.00;;;5.43;;
74152;SDS011;62505;46.070;14.492;2023-10-19T02:56:13;6.03;;;5.43;;
74152;SDS011;62505;46.070;14.492;2023-10-19T02:58:41;6.35;;;5.47;;
74152;SDS011;62505;46.070;14.492;2023-10-19T03:01:15;7.13;;;5.95;;
74152;SDS011;62505;46.070;14.492;2023-10-19T03:03:46;6.57;;;5.50;;
74152;SDS011;62505;46.070;14.492;2023-10-19T03:06:17;6.70;;;5.95;;
74152;SDS011;62505;46.070;14.492;2023-10-19T03:08:46;7.22;;;6.47;;
74152;SDS011;62505;46.070;14.492;2023-10-19T03:11:12;7.00;;;5.60;;
74152;SDS011;62505;46.070;14.492;2023-10-19T03:13:39;7.22;;;6.03;;
74152;SDS011;62505;46.070;14.492;2023-10-19T03:16:06;6.70;;;5.43;;
74152;SDS011;62505;46.070;14.492;2023-10-19T03:18:35;7.40;;;5.82;;
74152;SDS011;62505;46.070;14.492;2023-10-19T03:21:01;6.80;;;5.53;;
74152;SDS011;62505;46.070;14.492;2023-10-19T03:23:30;6.28;;;5.45;;
74152;SDS011;62505;46.070;14.492;2023-10-19T03:25:59;7.43;;;6.50;;
74152;SDS011;62505;46.070;14.492;2023-10-19T03:28:52;6.13;;;5.47;;
74152;SDS011;62505;46.070;14.492;2023-10-19T03:31:20;6.38;;;5.70;;
74152;SDS011;62505;46.070;14.492;2023-10-19T03:33:49;7.55;;;5.53;;
74152;SDS011;62505;46.070;14.492;2023-10-19T03:36:19;6.38;;;5.47;;
74152;SDS011;62505;46.070;14.492;2023-10-19T03:38:47;6.75;;;6.05;;
74152;SDS011;62505;46.070;14.492;2023-10-19T03:41:16;6.45;;;5.75;;
74152;SDS011;62505;46.070;14.492;2023-10-19T03:43:47;6.90;;;5.43;;
74152;SDS011;62505;46.070;14.492;2023-10-19T03:46:17;7.18;;;6.00;;
74152;SDS011;62505;46.070;14.492;2023-10-19T03:48:55;7.35;;;6.40;;
74152;SDS011;62505;46.070;14.492;2023-10-19T03:51:28;7.70;;;5.60;;
74152;SDS011;62505;46.070;14.492;2023-10-19T03:54:04;7.22;;;5.82;;
74152;SDS011;62505;46.070;14.492;2023-10-19T03:56:45;7.13;;;5.78;;
74152;SDS011;62505;46.070;14.492;2023-10-19T03:59:14;6.43;;;5.60;;
74152;SDS011;62505;46.070;14.492;2023-10-19T04:01:42;7.47;;;6.00;;
74152;SDS011;62505;46.070;14.492;2023-10-19T04:04:11;7.03;;;5.78;;
74152;SDS011;62505;46.070;14.492;2023-10-19T04:06:38;6.70;;;5.75;;
74152;SDS011;62505;46.070;14.492;2023-10-19T04:09:06;7.55;;;6.10;;
74152;SDS011;62505;46.070;14.492;2023-10-19T04:11:34;6.55;;;5.82;;
74152;SDS011;62505;46.070;14.492;2023-10-19T04:14:13;6.03;;;5.43;;
74152;SDS011;62505;46.070;14.492;2023-10-19T04:16:40;6.93;;;5.93;;
74152;SDS011;62505;46.070;14.492;2023-10-19T04:19:08;7.20;;;5.80;;
74152;SDS011;62505;46.070;14.492;2023-10-19T04:21:36;6.32;;;5.65;;
74152;SDS011;62505;46.070;14.492;2023-10-19T04:24:05;7.32;;;6.20;;
74152;SDS011;62505;46.070;14.492;2023-10-19T04:26:32;7.32;;;5.68;;
74152;SDS011;62505;46.070;14.492;2023-10-19T04:29:02;7.22;;;5.70;;
74152;SDS011;62505;46.070;14.492;2023-10-19T04:31:35;7.95;;;5.50;;
74152;SDS011;62505;46.070;14.492;2023-10-19T04:34:03;8.00;;;5.68;;
74152;SDS011;62505;46.070;14.492;2023-10-19T04:36:32;6.50;;;5.80;;
74152;SDS011;62505;46.070;14.492;2023-10-19T04:39:02;6.22;;;5.20;;
74152;SDS011;62505;46.070;14.492;2023-10-19T04:41:29;6.63;;;5.72;;
74152;SDS011;62505;46.070;14.492;2023-10-19T04:43:56;6.13;;;5.28;;
74152;SDS011;62505;46.070;14.492;2023-10-19T04:46:23;7.43;;;6.25;;
74152;SDS011;62505;46.070;14.492;2023-10-19T04:48:51;8.38;;;5.78;;
74152;SDS011;62505;46.070;14.492;2023-10-19T04:51:17;7.28;;;5.57;;
74152;SDS011;62505;46.070;14.492;2023-10-19T04:53:44;6.65;;;5.57;;
74152;SDS011;62505;46.070;14.492;2023-10-19T04:56:13;6.90;;;5.82;;
74152;SDS011;62505;46.070;14.492;2023-10-19T04:58:39;7.18;;;6.05;;
74152;SDS011;62505;46.070;14.492;2023-10-19T05:04:29;9.07;;;6.03;;
74152;SDS011;62505;46.070;14.492;2023-10-19T05:06:56;9.73;;;5.85;;
74152;SDS011;62505;46.070;14.492;2023-10-19T05:09:22;9.50;;;6.35;;
74152;SDS011;62505;46.070;14.492;2023-10-19T05:11:51;7.45;;;5.72;;
74152;SDS011;62505;46.070;14.492;2023-10-19T05:14:18;7.22;;;5.72;;
74152;SDS011;62505;46.070;14.492;2023-10-19T05:16:45;7.22;;;5.95;;
74152;SDS011;62505;46.070;14.492;2023-10-19T05:19:13;9.05;;;6.18;;
74152;SDS011;62505;46.070;14.492;2023-10-19T05:21:40;16.05;;;5.68;;
74152;SDS011;62505;46.070;14.492;2023-10-19T05:24:08;8.25;;;5.95;;
74152;SDS011;62505;46.070;14.492;2023-10-19T05:26:35;7.22;;;5.75;;
74152;SDS011;62505;46.070;14.492;2023-10-19T05:29:04;6.95;;;5.75;;
74152;SDS011;62505;46.070;14.492;2023-10-19T05:31:31;7.70;;;6.07;;
74152;SDS011;62505;46.070;14.492;2023-10-19T05:33:58;8.57;;;5.55;;
74152;SDS011;62505;46.070;14.492;2023-10-19T05:36:25;7.53;;;5.80;;
74152;SDS011;62505;46.070;14.492;2023-10-19T05:38:52;7.15;;;5.80;;
74152;SDS011;62505;46.070;14.492;2023-10-19T05:41:19;6.25;;;5.25;;
74152;SDS011;62505;46.070;14.492;2023-10-19T05:43:47;8.55;;;5.80;;
74152;SDS011;62505;46.070;14.492;2023-10-19T05:46:19;7.20;;;5.53;;
74152;SDS011;62505;46.070;14.492;2023-10-19T05:48:47;7.05;;;5.57;;
74152;SDS011;62505;46.070;14.492;2023-10-19T05:51:15;6.00;;;5.20;;
74152;SDS011;62505;46.070;14.492;2023-10-19T05:53:42;6.28;;;5.38;;
74152;SDS011;62505;46.070;14.492;2023-10-19T05:56:09;11.77;;;6.10;;
74152;SDS011;62505;46.070;14.492;2023-10-19T05:58:36;8.30;;;5.95;;
74152;SDS011;62505;46.070;14.492;2023-10-19T06:01:03;10.98;;;6.25;;
74152;SDS011;62505;46.070;14.492;2023-10-19T06:03:32;7.03;;;5.43;;
74152;SDS011;62505;46.070;14.492;2023-10-19T06:05:59;9.88;;;5.75;;
74152;SDS011;62505;46.070;14.492;2023-10-19T06:08:25;9.27;;;6.03;;
74152;SDS011;62505;46.070;14.492;2023-10-19T06:10:54;8.60;;;5.78;;
74152;SDS011;62505;46.070;14.492;2023-10-19T06:13:21;9.23;;;5.53;;
74152;SDS011;62505;46.070;14.492;2023-10-19T06:15:48;8.80;;;5.50;;
74152;SDS011;62505;46.070;14.492;2023-10-19T06:18:16;9.25;;;5.50;;
74152;SDS011;62505;46.070;14.492;2023-10-19T06:20:44;12.27;;;6.53;;
74152;SDS011;62505;46.070;14.492;2023-10-19T06:23:12;7.30;;;5.82;;
74152;SDS011;62505;46.070;14.492;2023-10-19T06:25:39;10.38;;;5.80;;
74152;SDS011;62505;46.070;14.492;2023-10-19T06:28:08;8.25;;;5.95;;
74152;SDS011;62505;46.070;14.492;2023-10-19T06:30:36;8.02;;;5.65;;
74152;SDS011;62505;46.070;14.492;2023-10-19T06:33:05;10.25;;;5.50;;
74152;SDS011;62505;46.070;14.492;2023-10-19T06:35:32;11.35;;;6.35;;
74152;SDS011;62505;46.070;14.492;2023-10-19T06:38:03;10.07;;;6.47;;
74152;SDS011;62505;46.070;14.492;2023-10-19T06:40:30;8.07;;;5.55;;
74152;SDS011;62505;46.070;14.492;2023-10-19T06:42:59;7.97;;;5.65;;
74152;SDS011;62505;46.070;14.492;2023-10-19T06:45:28;9.15;;;6.32;;
74152;SDS011;62505;46.070;14.492;2023-10-19T06:47:55;9.85;;;5.63;;
74152;SDS011;62505;46.070;14.492;2023-10-19T06:50:23;9.00;;;6.30;;
74152;SDS011;62505;46.070;14.492;2023-10-19T06:52:51;9.23;;;6.07;;
74152;SDS011;62505;46.070;14.492;2023-10-19T06:55:21;8.13;;;6.00;;
74152;SDS011;62505;46.070;14.492;2023-10-19T06:57:49;10.50;;;6.15;;
74152;SDS011;62505;46.070;14.492;2023-10-19T07:00:17;8.02;;;5.45;;
74152;SDS011;62505;46.070;14.492;2023-10-19T07:02:46;7.63;;;5.75;;
74152;SDS011;62505;46.070;14.492;2023-10-19T07:05:13;9.85;;;5.55;;
74152;SDS011;62505;46.070;14.492;2023-10-19T07:07:43;7.03;;;5.75;;
74152;SDS011;62505;46.070;14.492;2023-10-19T07:10:12;11.82;;;6.22;;
74152;SDS011;62505;46.070;14.492;2023-10-19T07:12:42;6.30;;;5.57;;
74152;SDS011;62505;46.070;14.492;2023-10-19T07:15:13;8.93;;;5.35;;
74152;SDS011;62505;46.070;14.492;2023-10-19T07:17:40;8.02;;;5.55;;
74152;SDS011;62505;46.070;14.492;2023-10-19T07:20:08;7.18;;;5.30;;
74152;SDS011;62505;46.070;14.492;2023-10-19T07:22:47;9.65;;;6.03;;
74152;SDS011;62505;46.070;14.492;2023-10-19T07:25:14;9.00;;;6.28;;
74152;SDS011;62505;46.070;14.492;2023-10-19T07:27:47;9.57;;;5.28;;
74152;SDS011;62505;46.070;14.492;2023-10-19T07:30:14;11.27;;;6.10;;
74152;SDS011;62505;46.070;14.492;2023-10-19T07:32:46;11.13;;;6.22;;
74152;SDS011;62505;46.070;14.492;2023-10-19T07:35:16;16.20;;;6.60;;
74152;SDS011;62505;46.070;14.492;2023-10-19T07:37:43;12.13;;;6.30;;
74152;SDS011;62505;46.070;14.492;2023-10-19T07:40:11;10.70;;;6.35;;
74152;SDS011;62505;46.070;14.492;2023-10-19T07:42:39;13.93;;;6.70;;
74152;SDS011;62505;46.070;14.492;2023-10-19T07:45:09;14.55;;;6.05;;
74152;SDS011;62505;46.070;14.492;2023-10-19T07:47:37;14.45;;;6.53;;
74152;SDS011;62505;46.070;14.492;2023-10-19T07:50:06;11.10;;;6.50;;
74152;SDS011;62505;46.070;14.492;2023-10-19T07:52:37;10.70;;;6.18;;
74152;SDS011;62505;46.070;14.492;2023-10-19T07:55:05;12.90;;;5.80;;
74152;SDS011;62505;46.070;14.492;2023-10-19T07:57:33;11.52;;;5.95;;
74152;SDS011;62505;46.070;14.492;2023-10-19T08:00:00;10.23;;;6.30;;
74152;SDS011;62505;46.070;14.492;2023-10-19T08:02:30;9.18;;;6.05;;
74152;SDS011;62505;46.070;14.492;2023-10-19T08:04:59;11.90;;;6.47;;
74152;SDS011;62505;46.070;14.492;2023-10-19T08:07:27;9.52;;;5.75;;
74152;SDS011;62505;46.070;14.492;2023-10-19T08:09:54;9.68;;;5.97;;
74152;SDS011;62505;46.070;14.492;2023-10-19T08:12:23;10.70;;;5.80;;
74152;SDS011;62505;46.070;14.492;2023-10-19T08:14:52;10.23;;;5.78;;
74152;SDS011;62505;46.070;14.492;2023-10-19T08:17:20;9.60;;;5.85;;
74152;SDS011;62505;46.070;14.492;2023-10-19T08:19:50;11.57;;;6.25;;
74152;SDS011;62505;46.070;14.492;2023-10-19T08:22:17;11.60;;;5.80;;
74152;SDS011;62505;46.070;14.492;2023-10-19T08:24:44;10.77;;;5.68;;
74152;SDS011;62505;46.070;14.492;2023-10-19T08:27:11;7.38;;;5.50;;
74152;SDS011;62505;46.070;14.492;2023-10-19T08:29:38;9.88;;;5.75;;
74152;SDS011;62505;46.070;14.492;2023-10-19T08:32:05;10.38;;;5.75;;
74152;SDS011;62505;46.070;14.492;2023-10-19T08:34:33;11.48;;;6.10;;
74152;SDS011;62505;46.070;14.492;2023-10-19T08:37:03;9.02;;;5.88;;
74152;SDS011;62505;46.070;14.492;2023-10-19T08:39:31;9.25;;;5.80;;
74152;SDS011;62505;46.070;14.492;2023-10-19T08:42:01;9.65;;;5.88;;
74152;SDS011;62505;46.070;14.492;2023-10-19T08:44:29;8.63;;;5.47;;
74152;SDS011;62505;46.070;14.492;2023-10-19T08:46:56;8.80;;;5.30;;
74152;SDS011;62505;46.070;14.492;2023-10-19T08:49:24;8.52;;;5.82;;
74152;SDS011;62505;46.070;14.492;2023-10-19T08:51:53;7.90;;;5.57;;
74152;SDS011;62505;46.070;14.492;2023-10-19T08:54:22;9.75;;;5.55;;
74152;SDS011;62505;46.070;14.492;2023-10-19T08:56:49;7.95;;;5.65;;
74152;SDS011;62505;46.070;14.492;2023-10-19T08:59:15;9.10;;;5.85;;
74152;SDS011;62505;46.070;14.492;2023-10-19T09:01:42;9.90;;;5.60;;
74152;SDS011;62505;46.070;14.492;2023-10-19T09:04:10;8.95;;;5.45;;
74152;SDS011;62505;46.070;14.492;2023-10-19T09:06:38;8.20;;;5.45;;
74152;SDS011;62505;46.070;14.492;2023-10-19T09:09:07;10.15;;;5.50;;
74152;SDS011;62505;46.070;14.492;2023-10-19T09:11:43;11.20;;;5.63;;
74152;SDS011;62505;46.070;14.492;2023-10-19T09:14:10;8.55;;;5.22;;
74152;SDS011;62505;46.070;14.492;2023-10-19T09:16:38;10.18;;;5.88;;
74152;SDS011;62505;46.070;14.492;2023-10-19T09:19:19;9.55;;;5.57;;
74152;SDS011;62505;46.070;14.492;2023-10-19T09:21:46;9.07;;;5.70;;
74152;SDS011;62505;46.070;14.492;2023-10-19T09:24:15;7.88;;;5.78;;
74152;SDS011;62505;46.070;14.492;2023-10-19T09:26:45;9.15;;;6.25;;
74152;SDS011;62505;46.070;14.492;2023-10-19T09:29:12;7.40;;;5.20;;
74152;SDS011;62505;46.070;14.492;2023-10-19T09:31:44;11.30;;;5.35;;
74152;SDS011;62505;46.070;14.492;2023-10-19T09:34:14;9.05;;;5.95;;
74152;SDS011;62505;46.070;14.492;2023-10-19T09:36:42;6.75;;;5.30;;
74152;SDS011;62505;46.070;14.492;2023-10-19T09:39:09;14.32;;;5.43;;
74152;SDS011;62505;46.070;14.492;2023-10-19T09:41:37;11.00;;;5.72;;
74152;SDS011;62505;46.070;14.492;2023-10-19T09:44:07;7.28;;;5.55;;
74152;SDS011;62505;46.070;14.492;2023-10-19T09:46:37;10.30;;;5.60;;
74152;SDS011;62505;46.070;14.492;2023-10-19T09:49:07;8.00;;;5.90;;
74152;SDS011;62505;46.070;14.492;2023-10-19T09:51:36;11.88;;;5.45;;
74152;SDS011;62505;46.070;14.492;2023-10-19T09:54:05;9.75;;;5.20;;
74152;SDS011;62505;46.070;14.492;2023-10-19T09:56:40;6.55;;;5.40;;
74152;SDS011;62505;46.070;14.492;2023-10-19T09:59:17;7.80;;;5.00;;
74152;SDS011;62505;46.070;14.492;2023-10-19T10:02:06;7.35;;;5.40;;
74152;SDS011;62505;46.070;14.492;2023-10-19T10:04:35;10.70;;;5.00;;
74152;SDS011;62505;46.070;14.492;2023-10-19T10:07:04;7.35;;;5.40;;
74152;SDS011;62505;46.070;14.492;2023-10-19T10:09:32;8.43;;;6.05;;
74152;SDS011;62505;46.070;14.492;2023-10-19T10:12:15;7.20;;;5.18;;
74152;SDS011;62505;46.070;14.492;2023-10-19T10:14:53;6.85;;;5.50;;
74152;SDS011;62505;46.070;14.492;2023-10-19T10:17:23;9.98;;;5.38;;
74152;SDS011;62505;46.070;14.492;2023-10-19T10:19:53;9.13;;;5.53;;
74152;SDS011;62505;46.070;14.492;2023-10-19T10:22:22;6.18;;;4.72;;
74152;SDS011;62505;46.070;14.492;2023-10-19T10:24:53;9.30;;;5.40;;
74152;SDS011;62505;46.070;14.492;2023-10-19T10:27:22;9.35;;;5.50;;
74152;SDS011;62505;46.070;14.492;2023-10-19T10:29:57;8.50;;;5.57;;
74152;SDS011;62505;46.070;14.492;2023-10-19T10:32:42;6.35;;;5.28;;
74152;SDS011;62505;46.070;14.492;2023-10-19T10:35:15;5.95;;;4.80;;
74152;SDS011;62505;46.070;14.492;2023-10-19T10:38:22;6.25;;;5.07;;
74152;SDS011;62505;46.070;14.492;2023-10-19T10:40:49;7.10;;;5.43;;
74152;SDS011;62505;46.070;14.492;2023-10-19T10:43:17;9.68;;;5.25;;
74152;SDS011;62505;46.070;14.492;2023-10-19T10:45:46;9.57;;;5.18;;
74152;SDS011;62505;46.070;14.492;2023-10-19T10:48:13;6.70;;;5.05;;
74152;SDS011;62505;46.070;14.492;2023-10-19T10:50:40;6.18;;;5.20;;
74152;SDS011;62505;46.070;14.492;2023-10-19T10:53:09;6.45;;;5.43;;
74152;SDS011;62505;46.070;14.492;2023-10-19T10:55:37;7.40;;;5.40;;
74152;SDS011;62505;46.070;14.492;2023-10-19T10:58:05;7.78;;;4.95;;
74152;SDS011;62505;46.070;14.492;2023-10-19T11:00:31;6.95;;;5.72;;
74152;SDS011;62505;46.070;14.492;2023-10-19T11:02:59;6.38;;;5.22;;
74152;SDS011;62505;46.070;14.492;2023-10-19T11:05:28;7.07;;;4.72;;
74152;SDS011;62505;46.070;14.492;2023-10-19T11:08:03;6.85;;;5.45;;
74152;SDS011;62505;46.070;14.492;2023-10-19T11:10:33;7.55;;;5.07;;
74152;SDS011;62505;46.070;14.492;2023-10-19T11:13:01;6.68;;;5.15;;
74152;SDS011;62505;46.070;14.492;2023-10-19T11:15:28;6.97;;;5.50;;
74152;SDS011;62505;46.070;14.492;2023-10-19T11:17:55;7.85;;;5.35;;
74152;SDS011;62505;46.070;14.492;2023-10-19T11:20:23;7.82;;;5.40;;
74152;SDS011;62505;46.070;14.492;2023-10-19T11:22:52;5.88;;;5.15;;
74152;SDS011;62505;46.070;14.492;2023-10-19T11:25:22;6.38;;;4.70;;
74152;SDS011;62505;46.070;14.492;2023-10-19T11:27:54;6.38;;;4.85;;
74152;SDS011;62505;46.070;14.492;2023-10-19T11:30:25;6.55;;;4.97;;
74152;SDS011;62505;46.070;14.492;2023-10-19T11:32:53;8.63;;;4.90;;
74152;SDS011;62505;46.070;14.492;2023-10-19T11:35:23;6.35;;;4.88;;
74152;SDS011;62505;46.070;14.492;2023-10-19T11:37:52;5.88;;;5.10;;
74152;SDS011;62505;46.070;14.492;2023-10-19T11:40:21;7.15;;;5.00;;
74152;SDS011;62505;46.070;14.492;2023-10-19T11:42:50;5.63;;;4.63;;
74152;SDS011;62505;46.070;14.492;2023-10-19T11:45:19;5.10;;;4.60;;
74152;SDS011;62505;46.070;14.492;2023-10-19T11:47:46;8.20;;;5.30;;
74152;SDS011;62505;46.070;14.492;2023-10-19T11:50:14;6.93;;;4.95;;
74152;SDS011;62505;46.070;14.492;2023-10-19T11:52:41;7.18;;;4.90;;
74152;SDS011;62505;46.070;14.492;2023-10-19T11:55:09;8.25;;;4.95;;
74152;SDS011;62505;46.070;14.492;2023-10-19T11:57:38;6.53;;;4.93;;
74152;SDS011;62505;46.070;14.492;2023-10-19T12:00:06;5.65;;;4.97;;
74152;SDS011;62505;46.070;14.492;2023-10-19T12:02:36;7.05;;;5.50;;
74152;SDS011;62505;46.070;14.492;2023-10-19T12:05:04;6.15;;;5.05;;
74152;SDS011;62505;46.070;14.492;2023-10-19T12:07:35;7.97;;;5.07;;
74152;SDS011;62505;46.070;14.492;2023-10-19T12:10:02;6.22;;;4.28;;
74152;SDS011;62505;46.070;14.492;2023-10-19T12:12:30;6.40;;;5.50;;
74152;SDS011;62505;46.070;14.492;2023-10-19T12:14:57;6.50;;;5.38;;
74152;SDS011;62505;46.070;14.492;2023-10-19T12:17:27;6.68;;;5.15;;
74152;SDS011;62505;46.070;14.492;2023-10-19T12:19:57;6.60;;;5.75;;
74152;SDS011;62505;46.070;14.492;2023-10-19T12:22:24;6.75;;;5.13;;
74152;SDS011;62505;46.070;14.492;2023-10-19T12:24:57;7.38;;;4.97;;
74152;SDS011;62505;46.070;14.492;2023-10-19T12:27:24;6.53;;;5.18;;
74152;SDS011;62505;46.070;14.492;2023-10-19T12:29:51;5.80;;;5.10;;
74152;SDS011;62505;46.070;14.492;2023-10-19T12:32:19;7.93;;;4.93;;
74152;SDS011;62505;46.070;14.492;2023-10-19T12:34:47;6.10;;;5.05;;
74152;SDS011;62505;46.070;14.492;2023-10-19T12:37:19;7.22;;;4.93;;
74152;SDS011;62505;46.070;14.492;2023-10-19T12:39:46;6.10;;;5.07;;
74152;SDS011;62505;46.070;14.492;2023-10-19T12:42:14;7.20;;;4.82;;
74152;SDS011;62505;46.070;14.492;2023-10-19T12:44:41;7.28;;;4.70;;
74152;SDS011;62505;46.070;14.492;2023-10-19T12:47:09;7.85;;;5.03;;
74152;SDS011;62505;46.070;14.492;2023-10-19T12:49:38;6.57;;;4.78;;
74152;SDS011;62505;46.070;14.492;2023-10-19T12:52:05;6.70;;;5.20;;
74152;SDS011;62505;46.070;14.492;2023-10-19T12:54:34;8.18;;;5.35;;
74152;SDS011;62505;46.070;14.492;2023-10-19T12:57:02;8.32;;;5.40;;
74152;SDS011;62505;46.070;14.492;2023-10-19T12:59:31;7.82;;;5.00;;
74152;SDS011;62505;46.070;14.492;2023-10-19T13:01:59;5.53;;;4.95;;
74152;SDS011;62505;46.070;14.492;2023-10-19T13:04:28;5.30;;;4.70;;
74152;SDS011;62505;46.070;14.492;2023-10-19T13:06:56;5.13;;;4.63;;
74152;SDS011;62505;46.070;14.492;2023-10-19T13:09:23;8.05;;;5.32;;
74152;SDS011;62505;46.070;14.492;2023-10-19T13:11:57;4.95;;;4.45;;
74152;SDS011;62505;46.070;14.492;2023-10-19T13:14:24;9.32;;;4.88;;
74152;SDS011;62505;46.070;14.492;2023-10-19T13:16:52;7.22;;;5.47;;
74152;SDS011;62505;46.070;14.492;2023-10-19T13:19:19;7.50;;;5.20;;
74152;SDS011;62505;46.070;14.492;2023-10-19T13:21:49;7.63;;;5.13;;
74152;SDS011;62505;46.070;14.492;2023-10-19T13:24:17;5.53;;;4.15;;
74152;SDS011;62505;46.070;14.492;2023-10-19T13:26:45;5.85;;;4.63;;
74152;SDS011;62505;46.070;14.492;2023-10-19T13:29:14;6.57;;;4.93;;
74152;SDS011;62505;46.070;14.492;2023-10-19T13:31:42;5.78;;;4.70;;
74152;SDS011;62505;46.070;14.492;2023-10-19T13:34:14;5.80;;;4.78;;
74152;SDS011;62505;46.070;14.492;2023-10-19T13:36:41;8.55;;;4.43;;
74152;SDS011;62505;46.070;14.492;2023-10-19T13:39:10;6.15;;;4.88;;
74152;SDS011;62505;46.070;14.492;2023-10-19T13:41:41;5.80;;;4.72;;
74152;SDS011;62505;46.070;14.492;2023-10-19T13:44:08;6.38;;;5.18;;
74152;SDS011;62505;46.070;14.492;2023-10-19T13:46:38;7.90;;;5.10;;
74152;SDS011;62505;46.070;14.492;2023-10-19T13:49:05;6.97;;;4.82;;
74152;SDS011;62505;46.070;14.492;2023-10-19T13:51:34;6.82;;;5.05;;
74152;SDS011;62505;46.070;14.492;2023-10-19T13:54:01;6.70;;;4.78;;
74152;SDS011;62505;46.070;14.492;2023-10-19T13:56:28;6.05;;;4.82;;
74152;SDS011;62505;46.070;14.492;2023-10-19T13:58:55;6.60;;;4.90;;
74152;SDS011;62505;46.070;14.492;2023-10-19T14:01:22;5.57;;;4.70;;
74152;SDS011;62505;46.070;14.492;2023-10-19T14:03:54;6.43;;;4.95;;
74152;SDS011;62505;46.070;14.492;2023-10-19T14:06:21;6.97;;;5.13;;
74152;SDS011;62505;46.070;14.492;2023-10-19T14:08:50;6.40;;;4.85;;
74152;SDS011;62505;46.070;14.492;2023-10-19T14:11:18;9.05;;;4.82;;
74152;SDS011;62505;46.070;14.492;2023-10-19T14:13:44;7.47;;;4.88;;
74152;SDS011;62505;46.070;14.492;2023-10-19T14:16:11;8.43;;;4.70;;
74152;SDS011;62505;46.070;14.492;2023-10-19T14:18:38;6.40;;;4.72;;
74152;SDS011;62505;46.070;14.492;2023-10-19T14:21:13;8.23;;;5.35;;
74152;SDS011;62505;46.070;14.492;2023-10-19T14:23:41;6.22;;;4.45;;
74152;SDS011;62505;46.070;14.492;2023-10-19T14:26:09;6.18;;;4.82;;
74152;SDS011;62505;46.070;14.492;2023-10-19T14:28:37;7.47;;;4.75;;
74152;SDS011;62505;46.070;14.492;2023-10-19T14:31:06;7.60;;;5.03;;
74152;SDS011;62505;46.070;14.492;2023-10-19T14:33:33;6.82;;;4.60;;
74152;SDS011;62505;46.070;14.492;2023-10-19T14:36:01;6.78;;;5.00;;
74152;SDS011;62505;46.070;14.492;2023-10-19T14:38:30;6.47;;;4.97;;
74152;SDS011;62505;46.070;14.492;2023-10-19T14:40:57;4.78;;;4.00;;
74152;SDS011;62505;46.070;14.492;2023-10-19T14:43:24;5.18;;;4.57;;
74152;SDS011;62505;46.070;14.492;2023-10-19T14:45:54;5.90;;;5.00;;
74152;SDS011;62505;46.070;14.492;2023-10-19T14:48:22;5.28;;;4.53;;